Time;durP1;ratioP1;P1;durP2;ratioP2;P2;SDS_P1;SDS_P2;PMS_P1;PMS_P2;Temp;Humidity;BMP_temperature;BMP_pressure;BME280_temperature;BME280_humidity;BME280_pressure;Samples;Min_cycle;Max_cycle;Signal;HPM_P1;HPM_P2
2022/02/10 00:08:13;;;;;;;7.75;5.18;;;7.40;99.90;;;;;;6227413;23;20005;-87
2022/02/10 00:34:28;;;;;;;9.25;5.47;;;7.30;99.90;;;;;;6217802;23;20028;-88
2022/02/10 00:37:19;;;;;;;9.93;5.07;;;7.30;99.90;;;;;;6215772;23;20007;-88
2022/02/10 00:42:24;;;;;;;9.10;4.65;;;7.30;99.90;;;;;;6217339;23;20080;-87
2022/02/10 00:44:50;;;;;;;8.30;5.00;;;7.20;99.90;;;;;;6215647;23;20008;-87
2022/02/10 00:47:15;;;;;;;9.15;4.72;;;7.20;99.90;;;;;;6215452;23;20015;-87
2022/02/10 00:49:42;;;;;;;7.63;4.20;;;7.20;99.90;;;;;;6215317;23;20028;-87
2022/02/10 00:52:08;;;;;;;8.48;4.85;;;7.20;99.90;;;;;;6215440;23;20492;-87
2022/02/10 00:54:37;;;;;;;7.95;4.68;;;7.20;99.90;;;;;;6215440;23;20465;-87
2022/02/10 00:57:06;;;;;;;8.30;4.40;;;7.20;99.90;;;;;;6215461;23;20059;-87
2022/02/10 01:31:44;;;;;;;7.43;4.18;;;7.10;99.90;;;;;;6217107;23;20039;-88
2022/02/10 01:34:10;;;;;;;8.90;4.20;;;7.00;99.90;;;;;;6215172;23;20005;-88
2022/02/10 01:36:35;;;;;;;7.65;3.97;;;7.00;99.90;;;;;;6215046;23;20055;-88
2022/02/10 01:39:02;;;;;;;7.07;4.10;;;7.10;99.90;;;;;;6214993;23;20054;-88
2022/02/10 01:58:39;;;;;;;7.90;4.20;;;7.00;99.90;;;;;;6216669;23;20061;-88
2022/02/10 02:03:52;;;;;;;7.35;3.92;;;6.90;99.90;;;;;;6216927;23;20008;-89
2022/02/10 02:06:23;;;;;;;7.93;4.05;;;6.90;99.90;;;;;;6215266;23;20005;-89
2022/02/10 02:08:49;;;;;;;6.57;3.97;;;6.90;99.90;;;;;;6215132;23;20007;-88
2022/02/10 02:11:15;;;;;;;8.25;3.90;;;6.90;99.90;;;;;;6215049;23;20095;-89
2022/02/10 02:13:41;;;;;;;8.85;4.22;;;6.90;99.90;;;;;;6214927;23;20016;-88
2022/02/10 02:16:06;;;;;;;7.57;3.88;;;6.90;99.90;;;;;;6214932;23;20087;-89
2022/02/10 02:18:32;;;;;;;8.27;3.80;;;6.90;99.90;;;;;;6216556;23;20028;-89
2022/02/10 02:20:59;;;;;;;7.18;4.10;;;6.90;99.90;;;;;;6214284;23;20331;-88
2022/02/10 02:23:28;;;;;;;6.40;4.05;;;6.80;99.90;;;;;;6214429;23;20012;-89
2022/02/10 02:26:05;;;;;;;9.07;3.90;;;6.80;99.90;;;;;;6215155;23;20337;-89
2022/02/10 02:28:36;;;;;;;7.05;3.60;;;6.80;99.90;;;;;;6214998;23;20005;-88
2022/02/10 02:31:06;;;;;;;5.45;3.60;;;6.80;99.90;;;;;;6216345;23;20008;-89
2022/02/10 02:38:49;;;;;;;6.07;3.78;;;6.80;99.90;;;;;;6216837;23;20005;-89
2022/02/10 03:08:19;;;;;;;6.05;3.60;;;6.70;99.90;;;;;;6248108;23;20063;-88
2022/02/10 03:13:14;;;;;;;5.38;3.28;;;6.70;99.90;;;;;;6249108;23;20008;-88
2022/02/10 03:16:06;;;;;;;5.72;3.58;;;6.70;99.90;;;;;;6221424;23;20031;-88
2022/02/10 03:21:17;;;;;;;6.63;3.45;;;6.70;99.90;;;;;;6249069;23;20107;-88
2022/02/10 04:05:34;;;;;;;5.78;3.28;;;6.50;99.90;;;;;;6237411;23;20000;-88
2022/02/10 04:08:12;;;;;;;6.22;3.45;;;6.50;99.90;;;;;;6246801;23;20016;-88
2022/02/10 04:21:02;;;;;;;6.43;3.42;;;6.50;99.90;;;;;;6258130;23;20011;-88
2022/02/10 04:57:42;;;;;;;5.30;3.25;;;6.30;99.90;;;;;;6247930;23;20000;-88
2022/02/10 05:38:03;;;;;;;5.57;2.88;;;6.20;99.90;;;;;;6256842;23;20043;-83
2022/02/10 05:43:27;;;;;;;6.78;3.75;;;6.20;99.90;;;;;;6246651;23;20039;-83
2022/02/10 06:02:12;;;;;;;6.53;3.35;;;6.20;99.90;;;;;;6246402;23;20444;-83
2022/02/10 06:53:43;;;;;;;7.00;3.30;;;6.10;99.90;;;;;;6260200;23;20035;-83
2022/02/10 07:16:47;;;;;;;4.75;2.92;;;6.20;99.90;;;;;;6249892;23;20015;-83
2022/02/10 07:51:32;;;;;;;4.28;3.15;;;9.60;99.90;;;;;;6247437;23;20087;-83
2022/02/10 07:59:13;;;;;;;6.38;3.80;;;10.50;99.90;;;;;;6247956;23;20004;-83
2022/02/10 09:09:12;;;;;;;9.65;3.42;;;11.20;99.90;;;;;;6256825;23;20337;-82
2022/02/10 10:50:57;;;;;;;10.75;3.80;;;11.30;99.90;;;;;;5111574;28;20068;-82
2022/02/10 11:38:28;;;;;;;11.25;3.42;;;10.50;99.90;;;;;;5110204;28;20100;-82
2022/02/10 11:41:07;;;;;;;8.43;3.15;;;10.50;99.90;;;;;;5109020;28;20062;-83
2022/02/10 11:43:41;;;;;;;6.35;3.30;;;10.40;99.90;;;;;;5108735;28;20115;-82
2022/02/10 14:19:29;;;;;;;9.27;4.47;;;8.20;99.90;;;;;;5093844;28;20103;-83
2022/02/10 14:22:08;;;;;;;7.65;3.70;;;8.20;99.90;;;;;;5092260;28;20024;-84
2022/02/10 14:27:19;;;;;;;7.75;3.83;;;8.20;99.90;;;;;;5093933;28;20035;-83
2022/02/10 14:29:45;;;;;;;5.43;3.97;;;8.20;99.90;;;;;;5092142;28;20388;-83
2022/02/10 14:32:15;;;;;;;7.78;3.97;;;8.20;99.90;;;;;;5092089;28;20024;-83
2022/02/10 14:34:40;;;;;;;10.88;4.13;;;8.10;99.90;;;;;;5092103;28;20035;-83
2022/02/10 14:40:08;;;;;;;8.52;4.40;;;8.10;99.90;;;;;;5093303;28;20020;-83
2022/02/10 15:55:55;;;;;;;5.88;3.40;;;7.90;99.90;;;;;;5091838;28;20035;-85
2022/02/10 16:17:05;;;;;;;4.97;3.22;;;7.80;99.90;;;;;;5096522;28;20027;-83
2022/02/10 16:19:32;;;;;;;5.28;3.03;;;7.80;99.90;;;;;;5094523;28;20119;-82
2022/02/10 16:25:00;;;;;;;;;;;7.80;99.90;;;;;;5096244;28;20027;-83
2022/02/10 16:27:28;;;;;;;8.82;3.38;;;7.80;99.90;;;;;;5094292;28;19919;-83
2022/02/10 16:30:11;;;;;;;7.03;3.50;;;7.80;99.90;;;;;;5094291;28;20115;-82
2022/02/10 16:32:39;;;;;;;7.85;3.25;;;7.80;99.90;;;;;;5094331;28;20372;-83
2022/02/10 16:35:05;;;;;;;5.90;3.00;;;7.80;99.90;;;;;;5094213;28;20031;-83
2022/02/10 16:37:33;;;;;;;5.35;3.22;;;7.80;99.90;;;;;;5094032;28;20051;-83
2022/02/10 16:39:59;;;;;;;5.93;3.30;;;7.80;99.90;;;;;;5094090;28;20396;-83
2022/02/10 16:42:24;;;;;;;6.28;3.53;;;7.80;99.90;;;;;;5094153;28;20031;-82
2022/02/10 16:44:52;;;;;;;6.00;3.25;;;7.80;99.90;;;;;;5094096;28;20024;-82
2022/02/10 16:47:18;;;;;;;5.38;3.10;;;7.80;99.90;;;;;;5095190;28;20028;-82
2022/02/10 16:49:47;;;;;;;5.25;3.10;;;7.80;99.90;;;;;;5095209;28;20024;-83
2022/02/10 16:52:24;;;;;;;3.92;3.03;;;7.70;99.90;;;;;;5093909;28;20027;-82
2022/02/10 16:55:01;;;;;;;6.30;3.10;;;7.80;99.90;;;;;;5093921;28;20024;-82
2022/02/10 17:00:20;;;;;;;5.18;3.05;;;7.70;99.90;;;;;;5095115;28;20471;-82
2022/02/10 17:03:13;;;;;;;6.30;3.63;;;7.70;99.90;;;;;;5093692;28;20419;-83
2022/02/10 17:27:10;;;;;;;;;;;7.70;99.90;;;;;;5095178;28;20151;-83
2022/02/10 17:30:54;;;;;;;8.52;3.15;;;7.70;99.90;;;;;;5093185;28;19949;-83
2022/02/10 17:32:48;;;;;;;5.78;3.40;;;7.70;99.90;;;;;;5089379;28;20380;-82
2022/02/10 17:35:45;;;;;;;7.80;3.50;;;7.70;99.90;;;;;;5094403;28;20024;-82
2022/02/10 17:46:09;;;;;;;7.57;3.88;;;7.70;99.90;;;;;;5094711;28;20027;-83
2022/02/10 17:54:01;;;;;;;5.80;3.50;;;7.70;99.90;;;;;;5094029;28;20020;-83
2022/02/10 17:56:28;;;;;;;6.13;3.38;;;7.70;99.90;;;;;;5092680;28;20043;-83
2022/02/10 17:58:54;;;;;;;6.82;3.30;;;7.70;99.90;;;;;;5093944;28;20113;-82
2022/02/10 18:01:20;;;;;;;5.38;3.50;;;7.60;99.90;;;;;;5092692;28;20391;-82
2022/02/10 18:03:50;;;;;;;5.65;3.58;;;7.60;99.90;;;;;;5092608;28;20031;-82
2022/02/10 18:06:21;;;;;;;5.63;2.97;;;7.70;99.90;;;;;;5092508;28;20534;-82
2022/02/10 18:09:18;;;;;;;7.82;3.72;;;7.60;99.90;;;;;;5093594;28;20035;-82
2022/02/10 18:18:22;;;;;;;6.32;3.53;;;7.60;99.90;;;;;;5094018;28;20077;-83
2022/02/10 18:20:20;;;;;;;5.47;3.30;;;7.60;99.90;;;;;;5088670;28;20028;-83
2022/02/10 18:22:57;;;;;;;6.90;3.65;;;7.60;99.90;;;;;;5092359;28;20050;-83
2022/02/10 19:07:55;;;;;;;6.05;3.63;;;7.60;99.90;;;;;;5097234;28;20028;-81
2022/02/10 19:10:24;;;;;;;6.25;4.10;;;7.60;99.90;;;;;;5080834;28;20018;-81
2022/02/10 19:12:57;;;;;;;8.25;3.80;;;7.60;99.90;;;;;;5095847;28;20443;-81
2022/02/10 19:15:32;;;;;;;6.75;4.47;;;7.60;99.90;;;;;;5095804;28;20024;-81
2022/02/10 19:17:59;;;;;;;6.22;3.83;;;7.60;99.90;;;;;;5097050;28;20027;-81
2022/02/10 19:20:26;;;;;;;8.60;3.47;;;7.60;99.90;;;;;;5096982;28;20031;-81
2022/02/10 19:22:53;;;;;;;5.43;3.30;;;7.50;99.90;;;;;;5095654;28;20028;-81
2022/02/10 19:25:20;;;;;;;6.30;3.65;;;7.50;99.90;;;;;;5096898;28;20099;-81
2022/02/10 19:27:48;;;;;;;5.55;3.72;;;7.50;99.90;;;;;;5096730;28;20024;-81
2022/02/10 19:30:16;;;;;;;6.10;3.78;;;7.50;99.90;;;;;;5095545;28;20020;-81
2022/02/10 19:32:48;;;;;;;6.63;3.85;;;7.50;99.90;;;;;;5096749;28;20032;-81
2022/02/10 19:35:16;;;;;;;7.03;4.10;;;7.50;99.90;;;;;;5095381;28;20158;-81
2022/02/10 19:37:42;;;;;;;5.47;3.65;;;7.50;99.90;;;;;;5095118;28;20056;-81
2022/02/10 19:40:08;;;;;;;6.97;4.00;;;7.50;99.90;;;;;;5095330;28;20118;-81
2022/02/10 19:42:36;;;;;;;7.72;4.28;;;7.50;99.90;;;;;;5095249;28;20024;-81
2022/02/10 19:45:04;;;;;;;7.57;4.15;;;7.50;99.90;;;;;;5095238;28;20024;-81
2022/02/10 19:47:33;;;;;;;6.90;4.40;;;7.50;99.90;;;;;;5095007;28;20082;-81
2022/02/10 19:50:00;;;;;;;6.38;4.03;;;7.50;99.90;;;;;;5095079;28;20468;-81
2022/02/10 19:52:26;;;;;;;7.40;4.28;;;7.50;99.90;;;;;;5095074;28;20028;-81
2022/02/10 19:54:56;;;;;;;7.03;4.13;;;7.50;99.90;;;;;;5095111;28;20021;-81
2022/02/10 19:57:24;;;;;;;7.60;4.85;;;7.50;99.90;;;;;;5096326;28;20024;-81
2022/02/10 19:59:50;;;;;;;7.45;4.57;;;7.50;99.90;;;;;;5096215;28;20016;-81
2022/02/10 20:02:20;;;;;;;8.75;4.90;;;7.50;99.90;;;;;;5094925;28;20081;-81
2022/02/10 20:04:46;;;;;;;9.40;4.50;;;7.50;99.90;;;;;;5096386;28;20027;-81
2022/02/10 20:07:12;;;;;;;6.30;4.35;;;7.50;99.90;;;;;;5095986;28;20020;-81
2022/02/10 20:09:38;;;;;;;12.60;5.32;;;7.50;99.90;;;;;;5094396;28;20046;-81
2022/02/10 20:12:04;;;;;;;8.38;4.35;;;7.50;99.90;;;;;;5096198;28;20020;-81
2022/02/10 20:14:30;;;;;;;8.88;5.05;;;7.40;99.90;;;;;;5095962;28;20020;-81
2022/02/10 20:16:57;;;;;;;7.13;4.45;;;7.50;99.90;;;;;;5094631;28;20606;-81
2022/02/10 20:19:23;;;;;;;6.93;4.60;;;7.50;99.90;;;;;;5096151;28;20045;-81
2022/02/10 20:21:49;;;;;;;8.32;4.63;;;7.50;99.90;;;;;;5095829;28;20024;-81
2022/02/10 20:24:15;;;;;;;8.60;4.97;;;7.40;99.90;;;;;;5095738;28;20103;-81
2022/02/10 20:26:41;;;;;;;9.30;4.95;;;7.50;99.90;;;;;;5094444;28;20466;-81
2022/02/10 20:29:10;;;;;;;8.70;4.80;;;7.40;99.90;;;;;;5094337;28;20484;-81
2022/02/10 20:31:39;;;;;;;9.25;4.88;;;7.40;99.90;;;;;;5094463;28;20024;-81
2022/02/10 20:34:09;;;;;;;7.30;4.60;;;7.40;99.90;;;;;;5094265;28;20020;-81
2022/02/10 20:36:36;;;;;;;11.68;5.28;;;7.40;99.90;;;;;;5094203;28;20483;-81
2022/02/10 20:39:03;;;;;;;7.10;4.32;;;7.40;99.90;;;;;;5094020;28;20093;-81
2022/02/10 20:41:32;;;;;;;7.90;5.50;;;7.40;99.90;;;;;;5094159;28;20024;-81
2022/02/10 20:44:00;;;;;;;8.25;5.15;;;7.40;99.90;;;;;;5095353;28;20023;-81
2022/02/10 20:46:28;;;;;;;7.50;4.55;;;7.40;99.90;;;;;;5094014;28;20031;-81
2022/02/10 20:48:54;;;;;;;7.57;4.93;;;7.40;99.90;;;;;;5093914;28;20028;-81
2022/02/10 20:51:21;;;;;;;8.63;4.85;;;7.40;99.90;;;;;;5077245;28;20077;-81
2022/02/10 20:53:49;;;;;;;7.72;4.97;;;7.40;99.90;;;;;;5093851;28;20028;-81
2022/02/10 20:56:20;;;;;;;8.32;4.93;;;7.40;99.90;;;;;;5095125;28;20099;-81
2022/02/10 20:58:54;;;;;;;6.22;4.65;;;7.40;99.90;;;;;;5094119;28;20032;-81
2022/02/10 21:01:20;;;;;;;10.10;5.10;;;7.40;99.90;;;;;;5095074;28;20027;-81
2022/02/10 21:03:45;;;;;;;8.00;4.55;;;7.40;99.90;;;;;;5093736;28;20119;-81
2022/02/10 21:11:06;;;;;;;6.80;4.93;;;7.40;99.90;;;;;;5095095;28;20046;-81
2022/02/10 21:13:33;;;;;;;8.25;4.85;;;7.40;99.90;;;;;;5093726;28;20038;-81
2022/02/10 21:15:59;;;;;;;8.05;4.55;;;7.40;99.90;;;;;;5094993;28;20464;-81
2022/02/10 21:18:26;;;;;;;8.23;4.50;;;7.40;99.90;;;;;;5093407;28;20024;-81
2022/02/10 21:20:58;;;;;;;7.50;4.75;;;7.40;99.90;;;;;;5093361;28;20059;-81
2022/02/10 21:23:33;;;;;;;7.60;4.80;;;7.40;99.90;;;;;;5093098;28;20107;-81
2022/02/10 21:26:00;;;;;;;7.22;4.32;;;7.40;99.90;;;;;;5093288;28;20024;-81
2022/02/10 21:28:31;;;;;;;8.30;4.90;;;7.40;99.90;;;;;;5094391;28;20099;-81
2022/02/10 21:31:00;;;;;;;7.00;4.60;;;7.40;99.90;;;;;;5094443;28;20020;-81
2022/02/10 21:33:44;;;;;;;7.28;4.63;;;7.40;99.90;;;;;;5093101;28;20052;-81
2022/02/10 21:39:07;;;;;;;7.82;4.68;;;7.30;99.90;;;;;;5094182;28;20304;-81
2022/02/10 22:00:39;;;;;;;7.60;4.82;;;7.30;99.90;;;;;;5094205;28;20020;-81
2022/02/10 22:09:18;;;;;;;6.82;4.30;;;7.30;99.90;;;;;;5094203;28;20035;-81
2022/02/10 22:19:15;;;;;;;7.53;4.50;;;7.30;99.90;;;;;;5093932;28;20032;-81
2022/02/10 22:21:51;;;;;;;6.32;4.30;;;7.30;99.90;;;;;;5093657;28;20023;-81
2022/02/10 22:24:18;;;;;;;5.85;4.18;;;7.30;99.90;;;;;;5092327;28;20027;-81
2022/02/10 22:26:45;;;;;;;7.55;4.13;;;7.30;99.90;;;;;;5092244;28;20028;-81
2022/02/10 22:29:20;;;;;;;6.20;4.15;;;7.30;99.90;;;;;;5092225;28;20049;-81
2022/02/10 22:34:35;;;;;;;8.60;4.30;;;7.20;99.90;;;;;;5093544;28;20510;-81
2022/02/10 22:37:04;;;;;;;8.40;4.95;;;7.30;99.90;;;;;;5093213;28;20023;-81
2022/02/10 22:39:35;;;;;;;6.63;4.32;;;7.30;99.90;;;;;;5092130;28;20051;-81
2022/02/10 22:42:02;;;;;;;8.80;4.25;;;7.30;99.90;;;;;;5092148;28;20077;-81
2022/02/10 22:44:28;;;;;;;7.82;4.68;;;7.20;99.90;;;;;;5093376;28;20103;-81
2022/02/10 22:46:53;;;;;;;7.18;4.57;;;7.30;99.90;;;;;;5092658;28;20472;-81
2022/02/10 22:49:19;;;;;;;7.82;4.57;;;7.30;99.90;;;;;;5091977;28;20055;-81
2022/02/10 22:51:45;;;;;;;7.22;4.63;;;7.20;99.90;;;;;;5092007;28;20020;-81
2022/02/10 22:54:13;;;;;;;8.05;4.75;;;7.20;99.90;;;;;;5092307;28;20458;-81
2022/02/10 22:56:40;;;;;;;9.65;4.90;;;7.20;99.90;;;;;;5091943;28;20062;-81
2022/02/10 22:59:07;;;;;;;6.70;4.63;;;7.20;99.90;;;;;;5091948;28;20020;-81
2022/02/10 23:01:35;;;;;;;7.50;4.82;;;7.20;99.90;;;;;;5091944;28;20445;-81
2022/02/10 23:04:00;;;;;;;9.35;4.82;;;7.20;99.90;;;;;;5091905;28;20065;-81
2022/02/10 23:06:26;;;;;;;7.70;4.85;;;7.20;99.90;;;;;;5091765;28;20039;-81
2022/02/10 23:08:52;;;;;;;8.80;5.05;;;7.20;99.90;;;;;;5091739;28;20028;-81
2022/02/10 23:11:26;;;;;;;7.90;5.00;;;7.20;99.90;;;;;;5091804;28;20048;-81
2022/02/10 23:13:53;;;;;;;6.78;5.05;;;7.20;99.90;;;;;;5091788;28;20077;-81
2022/02/10 23:16:19;;;;;;;6.70;4.85;;;7.20;99.90;;;;;;5091761;28;20052;-81
2022/02/10 23:18:45;;;;;;;7.97;5.07;;;7.20;99.90;;;;;;5091745;28;20113;-81
2022/02/10 23:21:14;;;;;;;8.43;4.63;;;7.20;99.90;;;;;;5091729;28;20030;-81
2022/02/10 23:23:44;;;;;;;8.65;5.00;;;7.20;99.90;;;;;;5091677;28;20491;-81
2022/02/10 23:26:11;;;;;;;8.32;5.15;;;7.20;99.90;;;;;;5091701;28;20024;-81
2022/02/10 23:28:40;;;;;;;8.65;5.30;;;7.20;99.90;;;;;;5091564;28;20024;-81
2022/02/10 23:31:10;;;;;;;8.35;5.30;;;7.20;99.90;;;;;;5091624;28;20085;-81
2022/02/10 23:33:39;;;;;;;8.13;5.10;;;7.20;99.90;;;;;;5091634;28;20418;-81
2022/02/10 23:38:47;;;;;;;8.52;4.82;;;7.20;99.90;;;;;;5092767;28;20054;-81
2022/02/10 23:44:11;;;;;;;7.50;4.90;;;7.20;99.90;;;;;;5093111;28;20024;-81
2022/02/10 23:46:39;;;;;;;11.40;5.35;;;7.20;99.90;;;;;;5094459;28;20082;-81
2022/02/10 23:49:05;;;;;;;7.95;4.80;;;7.20;99.90;;;;;;5096357;28;20032;-81
2022/02/10 23:51:36;;;;;;;7.10;5.13;;;7.20;99.90;;;;;;5096414;28;20016;-81
2022/02/10 23:54:02;;;;;;;9.35;5.32;;;7.20;99.90;;;;;;5095142;28;20051;-81
2022/02/10 23:56:33;;;;;;;9.65;5.43;;;7.20;99.90;;;;;;5095001;28;20048;-81
2022/02/10 23:59:09;;;;;;;8.45;5.13;;;7.20;99.90;;;;;;5095002;28;20364;-81
